Terminal Aerodrome Forecast
Issued by NWS

Home | Current Version | Previous Version | Text Only | Print | Product List | Glossary On
Versions: 1 2 3 4 5 6 7 8 9 10 11 12
000
FTUS45 KVEF 192320
TAFHND
TAF
KHND 192320Z 2000/2024 21011KT P6SM FEW250
     FM200200 20012G22KT P6SM SKC
     FM200800 20022G32KT P6SM SKC
     FM202000 22012G20KT P6SM SKC=

USA.gov is the U.S. government's official web portal to all federal, state and local government web resources and services.